createdAt,value
2018-02-25T17:31:57.754Z,-1.52
2018-02-25T17:36:01.062Z,-1.49
2018-02-25T17:40:04.386Z,-1.43
2018-02-25T17:44:07.742Z,-1.45
2018-02-25T17:48:11.046Z,-1.41
2018-02-25T17:52:14.367Z,-1.48
2018-02-25T17:56:17.694Z,-1.47
2018-02-25T18:00:21.017Z,-1.55
2018-02-25T18:04:25.106Z,-1.57
2018-02-25T18:08:28.406Z,-1.52
2018-02-25T18:12:31.753Z,-1.53
2018-02-25T18:16:35.825Z,-1.52
2018-02-25T18:20:39.163Z,-1.52
2018-02-25T18:24:43.238Z,-1.54
2018-02-25T18:28:46.575Z,-1.62
2018-02-25T18:32:49.882Z,-1.72
2018-02-25T18:36:53.207Z,-1.72
2018-02-25T18:40:56.553Z,-1.74
2018-02-25T18:44:59.874Z,-1.80
2018-02-25T18:49:03.199Z,-1.80
2018-02-25T18:53:07.308Z,-1.87
2018-02-25T18:57:10.626Z,-1.92
2018-02-25T19:01:14.728Z,-2.03
2018-02-25T19:05:18.038Z,-2.12
2018-02-25T19:09:21.351Z,-2.07
2018-02-25T19:13:25.449Z,-2.14
2018-02-25T19:17:28.766Z,-2.22
2018-02-25T19:21:32.082Z,-2.27
2018-02-25T19:25:36.187Z,-2.33
2018-02-25T19:29:39.590Z,-2.34
2018-02-25T19:33:42.919Z,-2.36
2018-02-25T19:37:52.563Z,-2.40
2018-02-25T19:41:56.657Z,-2.38
2018-02-25T19:45:59.974Z,-2.43
2018-02-25T19:50:03.285Z,-2.51
2018-02-25T19:54:07.382Z,-2.45
2018-02-25T19:58:10.703Z,-2.46
2018-02-25T20:02:14.082Z,-2.49
2018-02-25T20:06:17.355Z,-2.48
2018-02-25T20:10:20.670Z,-2.51
2018-02-25T20:14:24.002Z,-2.50
2018-02-25T20:18:27.299Z,-2.49
2018-02-25T20:22:30.614Z,-2.49
2018-02-25T20:26:33.954Z,-2.49
2018-02-25T20:30:37.250Z,-2.49
2018-02-25T20:34:40.566Z,-2.46
2018-02-25T20:38:43.890Z,-2.43
2018-02-25T20:42:47.210Z,-2.43
2018-02-25T20:46:50.532Z,-2.38
2018-02-25T20:50:53.834Z,-2.37
2018-02-25T20:54:57.171Z,-2.31
2018-02-25T20:59:00.472Z,-2.31
2018-02-25T21:03:03.798Z,-2.28
2018-02-25T21:07:07.098Z,-2.31
2018-02-25T21:11:10.410Z,-2.30
2018-02-25T21:15:13.738Z,-2.31
2018-02-25T21:19:17.039Z,-2.24
2018-02-25T21:23:20.354Z,-2.20
2018-02-25T21:27:23.697Z,-2.20
2018-02-25T21:31:27.010Z,-2.17
2018-02-25T21:35:30.311Z,-2.19
2018-02-25T21:39:33.622Z,-2.24
2018-02-25T21:43:36.943Z,-2.19
2018-02-25T21:47:40.258Z,-2.14
2018-02-25T21:51:43.574Z,-2.13
2018-02-25T21:55:52.420Z,-2.10
2018-02-25T22:00:01.869Z,-2.01
2018-02-25T22:04:05.955Z,-2.05
2018-02-25T22:08:09.271Z,-2.01
2018-02-25T22:12:12.567Z,-1.95
2018-02-25T22:16:15.890Z,-1.96
2018-02-25T22:20:19.977Z,-1.92
2018-02-25T22:24:23.296Z,-1.99
2018-02-25T22:28:26.610Z,-1.99
2018-02-25T22:32:29.907Z,-1.94
2018-02-25T22:36:33.219Z,-2.00
2018-02-25T22:40:37.307Z,-1.94
2018-02-25T22:44:40.644Z,-1.89
2018-02-25T22:48:44.709Z,-1.89
2018-02-25T22:52:48.034Z,-1.93
2018-02-25T22:56:51.351Z,-1.96
2018-02-25T23:00:54.655Z,-1.94
2018-02-25T23:04:57.974Z,-1.91
2018-02-25T23:09:02.058Z,-1.87
2018-02-25T23:13:05.394Z,-1.89
2018-02-25T23:17:08.690Z,-1.95
2018-02-25T23:21:12.017Z,-1.96
2018-02-25T23:25:15.350Z,-2.00
2018-02-25T23:29:18.645Z,-1.98
2018-02-25T23:33:21.979Z,-2.07
2018-02-25T23:37:25.275Z,-2.11
2018-02-25T23:41:28.597Z,-2.18
2018-02-25T23:45:31.926Z,-2.18
2018-02-25T23:49:35.992Z,-2.21
2018-02-25T23:53:39.315Z,-2.22
2018-02-25T23:57:42.638Z,-2.28
